createdAt,value
2017-11-07T00:03:07.563Z,30.33
2017-11-07T00:05:35.168Z,37.13
2017-11-07T00:08:02.741Z,30.20
2017-11-07T00:10:30.337Z,32.40
2017-11-07T00:12:57.902Z,32.83
2017-11-07T00:15:25.482Z,36.70
2017-11-07T00:17:53.037Z,35.50
2017-11-07T00:20:20.620Z,34.57
2017-11-07T00:22:48.934Z,47.07
2017-11-07T00:25:16.933Z,34.47
2017-11-07T00:27:44.479Z,33.10
2017-11-07T00:30:12.039Z,34.47
2017-11-07T00:32:39.680Z,37.27
2017-11-07T00:35:07.256Z,36.60
2017-11-07T00:37:34.842Z,38.30
2017-11-07T00:40:02.393Z,37.00
2017-11-07T00:42:30.349Z,35.37
2017-11-07T00:44:57.888Z,46.70
2017-11-07T00:47:25.458Z,34.93
2017-11-07T00:49:53.074Z,37.00
2017-11-07T00:52:21.374Z,39.67
2017-11-07T00:54:48.986Z,32.57
2017-11-07T00:57:16.527Z,42.37
2017-11-07T00:59:44.393Z,39.83
2017-11-07T01:02:11.950Z,44.93
2017-11-07T01:04:39.500Z,39.70
2017-11-07T01:07:07.086Z,38.13
2017-11-07T01:09:34.642Z,34.63
2017-11-07T01:12:02.235Z,34.53
2017-11-07T01:14:29.794Z,34.73
2017-11-07T01:16:58.397Z,30.20
2017-11-07T01:19:25.961Z,35.50
2017-11-07T01:21:53.510Z,31.30
2017-11-07T01:24:21.106Z,31.40
2017-11-07T01:26:48.647Z,31.87
2017-11-07T01:29:16.237Z,31.10
2017-11-07T01:31:43.820Z,33.33
2017-11-07T01:34:11.407Z,30.90
2017-11-07T01:36:38.978Z,32.47
2017-11-07T01:39:06.989Z,33.90
2017-11-07T01:41:34.556Z,32.00
2017-11-07T01:44:02.118Z,30.97
2017-11-07T01:46:29.718Z,38.57
2017-11-07T01:48:57.258Z,34.33
2017-11-07T01:51:25.624Z,29.60
2017-11-07T01:53:53.171Z,30.17
2017-11-07T01:56:21.016Z,38.47
2017-11-07T01:58:48.565Z,33.00
2017-11-07T02:01:16.116Z,39.70
2017-11-07T02:03:43.702Z,31.43
2017-11-07T02:06:11.239Z,28.83
2017-11-07T02:08:38.834Z,33.03
2017-11-07T02:11:06.390Z,31.80
2017-11-07T02:13:34.229Z,30.60
2017-11-07T02:16:01.787Z,29.17
2017-11-07T02:18:29.430Z,33.70
2017-11-07T02:20:57.023Z,39.90
2017-11-07T02:23:24.613Z,35.47
2017-11-07T02:25:52.200Z,34.17
2017-11-07T02:28:19.730Z,38.47
2017-11-07T02:30:47.673Z,40.23
2017-11-07T02:33:15.255Z,33.47
2017-11-07T02:35:42.819Z,38.40
2017-11-07T02:38:10.431Z,35.57
2017-11-07T02:40:37.974Z,35.43
2017-11-07T02:43:05.567Z,35.23
2017-11-07T02:45:33.113Z,39.50
2017-11-07T02:48:01.106Z,41.07
2017-11-07T02:50:28.651Z,31.37
2017-11-07T02:52:56.202Z,33.70
2017-11-07T02:55:23.771Z,34.13
2017-11-07T02:57:51.322Z,42.40
2017-11-07T03:00:18.907Z,40.67
2017-11-07T03:02:46.493Z,40.97
2017-11-07T03:05:15.113Z,45.03
2017-11-07T03:07:42.649Z,36.23
2017-11-07T03:10:10.965Z,43.13
2017-11-07T03:12:38.651Z,35.27
2017-11-07T03:15:06.234Z,42.67
2017-11-07T03:17:34.585Z,33.17
2017-11-07T03:20:02.138Z,37.80
2017-11-07T03:22:30.005Z,36.83
2017-11-07T03:24:57.530Z,35.10
2017-11-07T03:27:25.099Z,62.40
2017-11-07T03:29:52.669Z,40.53
2017-11-07T03:32:20.229Z,34.47
2017-11-07T03:34:47.810Z,43.67
2017-11-07T03:37:15.368Z,48.07
2017-11-07T03:39:43.219Z,33.30
2017-11-07T03:42:10.773Z,36.90
2017-11-07T03:44:38.339Z,40.33
2017-11-07T03:47:05.922Z,38.27
2017-11-07T03:49:33.543Z,37.10
2017-11-07T03:52:01.117Z,38.70
2017-11-07T03:54:28.673Z,43.37
2017-11-07T03:56:56.569Z,40.77
2017-11-07T03:59:24.271Z,45.90
2017-11-07T04:01:51.909Z,45.07
2017-11-07T04:04:20.258Z,43.10
2017-11-07T04:06:47.814Z,40.47
2017-11-07T04:09:15.408Z,42.80
2017-11-07T04:11:43.772Z,40.33
2017-11-07T04:14:11.513Z,42.83
2017-11-07T04:16:39.083Z,40.93
2017-11-07T04:19:07.052Z,47.67
2017-11-07T04:21:35.300Z,38.20
2017-11-07T04:24:02.851Z,53.67
2017-11-07T04:26:30.421Z,47.67
2017-11-07T04:28:58.135Z,47.30
2017-11-07T04:31:26.477Z,52.67
2017-11-07T04:33:54.131Z,49.97
2017-11-07T04:36:22.078Z,46.23
2017-11-07T04:38:49.623Z,34.80
2017-11-07T04:41:17.551Z,47.80
2017-11-07T04:43:45.198Z,44.67
2017-11-07T04:46:12.745Z,53.67
2017-11-07T04:48:40.321Z,47.87
2017-11-07T04:51:07.878Z,60.63
2017-11-07T04:53:35.725Z,53.07
2017-11-07T04:56:03.349Z,35.77
2017-11-07T04:58:31.646Z,48.20
2017-11-07T05:00:59.199Z,48.77
2017-11-07T05:03:26.744Z,47.97
2017-11-07T05:05:54.325Z,55.07
2017-11-07T05:08:21.940Z,51.80
2017-11-07T05:10:49.830Z,55.03
2017-11-07T05:13:18.155Z,46.77
2017-11-07T05:15:45.706Z,56.03
2017-11-07T05:18:13.294Z,60.50
2017-11-07T05:20:40.859Z,60.77
2017-11-07T05:23:08.515Z,44.33
2017-11-07T05:25:36.085Z,57.23
2017-11-07T05:28:03.997Z,57.27
2017-11-07T05:30:31.556Z,50.43
2017-11-07T05:32:59.134Z,46.57
2017-11-07T05:35:26.720Z,49.77
2017-11-07T05:37:54.262Z,56.10
2017-11-07T05:40:21.866Z,56.63
2017-11-07T05:42:49.414Z,51.67
2017-11-07T05:45:18.066Z,55.07
2017-11-07T05:47:45.644Z,48.13
2017-11-07T05:50:13.203Z,49.77
2017-11-07T05:52:41.098Z,49.77
2017-11-07T05:55:09.414Z,68.07
2017-11-07T05:57:37.028Z,70.13
2017-11-07T06:00:04.589Z,59.37
2017-11-07T06:02:32.528Z,54.40
2017-11-07T06:05:00.108Z,55.87
2017-11-07T06:07:27.666Z,56.13
2017-11-07T06:09:56.039Z,54.40
2017-11-07T06:12:23.638Z,70.53
2017-11-07T06:14:51.270Z,70.50
2017-11-07T06:17:19.576Z,55.37
2017-11-07T06:19:47.410Z,59.67
2017-11-07T06:22:15.725Z,57.07
2017-11-07T06:24:43.271Z,64.47
2017-11-07T06:27:10.887Z,58.63
2017-11-07T06:29:38.447Z,59.53
2017-11-07T06:32:06.054Z,64.67
2017-11-07T06:34:33.618Z,75.40
2017-11-07T06:37:01.627Z,67.00
2017-11-07T06:39:29.176Z,73.83
2017-11-07T06:41:56.734Z,63.37
2017-11-07T06:44:24.347Z,58.17
2017-11-07T06:46:52.654Z,68.57
2017-11-07T06:49:20.253Z,75.73
2017-11-07T06:51:47.874Z,58.73
2017-11-07T06:54:15.909Z,72.53
2017-11-07T06:56:45.009Z,59.80
2017-11-07T06:59:13.353Z,71.40
2017-11-07T07:01:41.081Z,63.93
2017-11-07T07:04:08.636Z,69.63
2017-11-07T07:06:36.211Z,59.83
2017-11-07T07:09:03.769Z,64.07
2017-11-07T07:11:31.667Z,58.60
2017-11-07T07:13:59.230Z,72.80
2017-11-07T07:16:28.298Z,71.70
2017-11-07T07:18:55.885Z,69.83
2017-11-07T07:21:23.481Z,63.07
2017-11-07T07:23:51.158Z,67.93
2017-11-07T07:26:18.705Z,72.23
2017-11-07T07:28:46.726Z,87.47
2017-11-07T07:31:14.294Z,65.73
2017-11-07T07:33:42.603Z,78.97
2017-11-07T07:36:10.189Z,66.30
2017-11-07T07:38:37.745Z,88.27
2017-11-07T07:41:05.437Z,68.77
2017-11-07T07:43:33.032Z,60.00
2017-11-07T07:46:01.666Z,87.57
2017-11-07T07:48:29.314Z,71.23
2017-11-07T07:50:56.907Z,67.33
2017-11-07T07:53:24.489Z,76.27
2017-11-07T07:55:52.057Z,63.83
2017-11-07T07:58:19.646Z,82.00
2017-11-07T08:00:47.219Z,65.80
2017-11-07T08:03:15.107Z,71.97
2017-11-07T08:05:42.655Z,68.07
2017-11-07T08:08:10.212Z,74.63
2017-11-07T08:10:37.850Z,69.07
2017-11-07T08:13:05.403Z,60.70
2017-11-07T08:15:33.000Z,65.23
2017-11-07T08:18:00.538Z,57.73
2017-11-07T08:20:28.418Z,51.70
2017-11-07T08:22:55.968Z,62.23
2017-11-07T08:25:23.509Z,66.23
2017-11-07T08:27:51.085Z,59.77
2017-11-07T08:30:18.643Z,70.00
2017-11-07T08:32:46.419Z,76.93
2017-11-07T08:35:13.991Z,64.27
2017-11-07T08:37:41.829Z,68.53
2017-11-07T08:40:09.388Z,63.17
2017-11-07T08:42:36.929Z,64.77
2017-11-07T08:45:04.509Z,70.83
2017-11-07T08:47:32.062Z,67.97
2017-11-07T08:49:59.653Z,69.97
2017-11-07T08:52:27.208Z,72.97
2017-11-07T08:54:55.207Z,67.97
2017-11-07T08:57:23.569Z,77.30
2017-11-07T08:59:51.129Z,73.20
2017-11-07T09:02:18.737Z,71.87
2017-11-07T09:04:46.291Z,62.73
2017-11-07T09:07:13.904Z,75.20
2017-11-07T09:09:41.460Z,71.73
2017-11-07T09:12:09.427Z,70.83
2017-11-07T09:14:36.998Z,71.27
2017-11-07T09:17:04.765Z,70.53
2017-11-07T09:19:32.365Z,83.70
2017-11-07T09:21:59.932Z,62.13
2017-11-07T09:24:27.528Z,72.33
2017-11-07T09:26:55.053Z,77.77
2017-11-07T09:29:23.075Z,82.63
2017-11-07T09:31:50.655Z,100.63
2017-11-07T09:34:18.264Z,72.57
2017-11-07T09:36:46.734Z,79.13
2017-11-07T09:39:14.281Z,70.03
2017-11-07T09:41:42.215Z,68.30
2017-11-07T09:44:10.551Z,75.00
2017-11-07T09:46:38.111Z,69.13
2017-11-07T09:49:05.701Z,67.63
2017-11-07T09:51:33.300Z,76.10
2017-11-07T09:54:00.958Z,71.90
2017-11-07T09:56:28.533Z,81.97
2017-11-07T09:58:56.474Z,69.40
2017-11-07T10:01:24.100Z,87.17
2017-11-07T10:03:51.684Z,66.07
2017-11-07T10:06:19.270Z,68.10
2017-11-07T10:08:47.582Z,74.93
2017-11-07T10:11:15.183Z,65.07
2017-11-07T10:13:42.747Z,60.67
2017-11-07T10:16:10.864Z,66.67
2017-11-07T10:18:38.397Z,60.90
2017-11-07T10:21:06.696Z,58.90
2017-11-07T10:23:34.296Z,58.53
2017-11-07T10:26:01.861Z,61.70
2017-11-07T10:28:29.694Z,47.07
2017-11-07T10:30:57.312Z,60.10
2017-11-07T10:33:25.673Z,60.90
2017-11-07T10:35:53.381Z,54.43
2017-11-07T10:38:21.838Z,66.63
2017-11-07T10:40:49.377Z,58.50
2017-11-07T10:43:16.920Z,59.60
2017-11-07T10:45:44.505Z,50.00
2017-11-07T10:48:12.823Z,57.23
2017-11-07T10:50:41.058Z,60.33
2017-11-07T10:53:09.384Z,63.30
2017-11-07T10:55:36.937Z,62.50
2017-11-07T10:58:04.533Z,68.37
2017-11-07T11:00:32.072Z,65.07
2017-11-07T11:02:59.938Z,63.13
2017-11-07T11:05:27.528Z,59.23
2017-11-07T11:07:55.874Z,65.50
2017-11-07T11:10:23.482Z,57.70
2017-11-07T11:12:51.045Z,57.07
2017-11-07T11:15:19.719Z,49.13
2017-11-07T11:17:47.277Z,54.20
2017-11-07T11:20:14.858Z,52.97
2017-11-07T11:22:42.550Z,53.73
2017-11-07T11:25:10.303Z,57.03
2017-11-07T11:27:38.628Z,57.60
2017-11-07T11:30:06.207Z,49.53
2017-11-07T11:32:34.845Z,58.60
2017-11-07T11:35:02.438Z,44.93
2017-11-07T11:37:29.995Z,47.63
2017-11-07T11:39:57.564Z,53.87
2017-11-07T11:42:25.137Z,55.63
2017-11-07T11:44:53.663Z,50.80
2017-11-07T11:47:21.360Z,56.90
2017-11-07T11:49:49.298Z,61.27
2017-11-07T11:52:16.860Z,46.57
2017-11-07T11:54:44.409Z,59.97
2017-11-07T11:57:11.996Z,51.20
2017-11-07T11:59:39.771Z,47.17
2017-11-07T12:02:07.376Z,54.93
2017-11-07T12:04:34.921Z,43.20
2017-11-07T12:07:03.029Z,44.80
2017-11-07T12:09:30.590Z,43.63
2017-11-07T12:11:58.125Z,49.10
2017-11-07T12:14:26.733Z,52.07
2017-11-07T12:16:54.312Z,45.27
2017-11-07T12:19:21.933Z,47.20
2017-11-07T12:21:50.173Z,47.63
2017-11-07T12:24:18.833Z,41.40
2017-11-07T12:26:46.383Z,45.50
2017-11-07T12:29:13.950Z,53.40
2017-11-07T12:31:41.541Z,47.07
2017-11-07T12:34:09.885Z,46.27
2017-11-07T12:36:37.490Z,43.90
2017-11-07T12:39:05.049Z,42.30
2017-11-07T12:41:32.908Z,42.20
2017-11-07T12:44:00.467Z,47.30
2017-11-07T12:46:28.030Z,48.87
2017-11-07T12:48:55.620Z,45.90
2017-11-07T12:51:34.965Z,48.17
2017-11-07T12:54:02.547Z,39.37
2017-11-07T12:56:30.106Z,37.17
2017-11-07T12:58:58.057Z,44.03
2017-11-07T13:01:26.725Z,41.87
2017-11-07T13:03:54.286Z,34.23
2017-11-07T13:06:21.890Z,45.53
2017-11-07T13:08:49.565Z,43.67
2017-11-07T13:11:18.191Z,37.13
2017-11-07T13:13:45.751Z,47.80
2017-11-07T13:16:13.317Z,45.23
2017-11-07T13:18:40.923Z,40.20
2017-11-07T13:21:08.509Z,39.53
2017-11-07T13:23:36.135Z,36.27
2017-11-07T13:26:03.792Z,38.30
2017-11-07T13:28:31.641Z,54.83
2017-11-07T13:30:59.351Z,51.50
2017-11-07T13:33:27.949Z,49.13
2017-11-07T13:35:55.685Z,52.43
2017-11-07T13:38:23.976Z,44.90
2017-11-07T13:40:52.488Z,47.57
2017-11-07T13:43:20.119Z,38.37
2017-11-07T13:45:48.781Z,49.13
2017-11-07T13:48:16.358Z,44.90
2017-11-07T13:50:43.924Z,41.93
2017-11-07T13:53:12.290Z,36.53
2017-11-07T13:55:39.884Z,37.93
2017-11-07T13:58:07.461Z,35.10
2017-11-07T14:00:35.022Z,35.30
2017-11-07T14:03:02.623Z,38.03
2017-11-07T14:05:30.179Z,40.17
2017-11-07T14:07:58.132Z,39.30
2017-11-07T14:10:25.878Z,40.43
2017-11-07T14:12:53.424Z,42.53
2017-11-07T14:15:21.025Z,41.13
2017-11-07T14:17:49.580Z,33.87
2017-11-07T14:20:18.680Z,45.33
2017-11-07T14:22:47.773Z,29.93
2017-11-07T14:25:15.741Z,30.97
2017-11-07T14:27:43.300Z,35.47
2017-11-07T14:30:10.852Z,33.50
2017-11-07T14:32:39.443Z,31.83
2017-11-07T14:35:07.019Z,32.20
2017-11-07T14:37:34.650Z,31.80
2017-11-07T14:40:02.465Z,36.40
2017-11-07T14:42:30.445Z,37.93
2017-11-07T14:44:58.761Z,34.37
2017-11-07T14:47:26.316Z,35.07
2017-11-07T14:49:54.015Z,38.07
2017-11-07T14:52:21.616Z,38.67
2017-11-07T14:54:49.192Z,37.87
2017-11-07T14:57:16.813Z,31.07
2017-11-07T14:59:45.467Z,30.23
2017-11-07T15:02:13.651Z,37.60
2017-11-07T15:04:41.247Z,29.93
2017-11-07T15:07:09.603Z,29.23
2017-11-07T15:09:37.146Z,27.67
2017-11-07T15:12:04.735Z,30.77
2017-11-07T15:14:32.500Z,39.63
2017-11-07T15:17:01.534Z,29.00
2017-11-07T15:19:29.043Z,38.33
2017-11-07T15:21:56.632Z,33.30
2017-11-07T15:24:24.217Z,24.67
2017-11-07T15:26:52.156Z,34.37
2017-11-07T15:29:19.789Z,27.27
2017-11-07T15:31:47.343Z,30.93
2017-11-07T15:34:15.398Z,29.87
2017-11-07T15:36:42.970Z,32.50
2017-11-07T15:39:10.577Z,33.27
2017-11-07T15:41:38.176Z,28.63
2017-11-07T15:44:05.736Z,28.70
2017-11-07T15:46:33.347Z,31.47
2017-11-07T15:49:00.901Z,30.43
2017-11-07T15:51:28.494Z,25.87
2017-11-07T15:53:56.050Z,32.90
2017-11-07T15:56:23.873Z,28.87
2017-11-07T15:58:51.438Z,31.20
2017-11-07T16:01:20.082Z,32.07
2017-11-07T16:03:47.752Z,35.90
2017-11-07T16:06:15.335Z,35.90
2017-11-07T16:08:43.829Z,31.90
2017-11-07T16:11:11.404Z,26.50
2017-11-07T16:13:39.439Z,30.00
2017-11-07T16:16:07.774Z,29.13
2017-11-07T16:18:35.346Z,29.70
2017-11-07T16:21:02.967Z,28.50
2017-11-07T16:23:30.514Z,27.20
2017-11-07T16:25:59.367Z,31.43
2017-11-07T16:28:26.921Z,37.40
2017-11-07T16:30:54.465Z,37.47
2017-11-07T16:33:22.077Z,32.63
2017-11-07T16:35:49.642Z,29.57
2017-11-07T16:38:18.495Z,28.73
2017-11-07T16:40:46.062Z,36.80
2017-11-07T16:43:13.913Z,29.40
2017-11-07T16:45:41.486Z,30.03
2017-11-07T16:48:09.030Z,32.57
2017-11-07T16:50:37.206Z,34.10
2017-11-07T16:53:04.753Z,35.30
2017-11-07T16:55:32.361Z,28.67
2017-11-07T16:58:00.856Z,31.93
2017-11-07T17:00:29.182Z,23.10
2017-11-07T17:02:57.023Z,31.60
2017-11-07T17:05:24.614Z,24.00
2017-11-07T17:07:52.170Z,32.20
2017-11-07T17:10:19.746Z,26.50
2017-11-07T17:12:47.395Z,28.30
2017-11-07T17:15:15.266Z,25.23
2017-11-07T17:17:42.826Z,34.80
2017-11-07T17:20:10.430Z,36.10
2017-11-07T17:22:38.825Z,38.10
2017-11-07T17:25:06.387Z,29.73
2017-11-07T17:27:34.391Z,33.50
2017-11-07T17:30:02.825Z,36.37
2017-11-07T17:32:30.376Z,38.90
2017-11-07T17:34:58.952Z,38.00
2017-11-07T17:37:26.509Z,34.10
2017-11-07T17:39:55.169Z,31.83
2017-11-07T17:42:22.738Z,35.87
2017-11-07T17:44:51.063Z,34.27
2017-11-07T17:47:18.964Z,33.07
2017-11-07T17:49:46.522Z,31.43
2017-11-07T17:52:14.082Z,36.10
2017-11-07T17:54:41.782Z,43.00
2017-11-07T17:57:10.089Z,32.43
2017-11-07T17:59:37.706Z,34.43
2017-11-07T18:02:05.252Z,33.80
2017-11-07T18:04:32.858Z,31.83
2017-11-07T18:07:00.546Z,38.03
2017-11-07T18:09:28.112Z,35.97
2017-11-07T18:11:55.701Z,35.27
2017-11-07T18:14:23.338Z,39.10
2017-11-07T18:16:51.338Z,37.23
2017-11-07T18:19:19.694Z,34.13
2017-11-07T18:21:47.218Z,35.10
2017-11-07T18:24:14.878Z,31.50
2017-11-07T18:26:42.428Z,34.40
2017-11-07T18:29:10.005Z,36.43
2017-11-07T18:31:37.598Z,35.73
2017-11-07T18:34:05.347Z,37.80
2017-11-07T18:36:32.894Z,40.97
2017-11-07T18:39:00.933Z,39.03
2017-11-07T18:41:28.512Z,39.10
2017-11-07T18:43:56.067Z,39.60
2017-11-07T18:46:23.704Z,42.00
2017-11-07T18:48:52.034Z,42.33
2017-11-07T18:51:19.626Z,37.77
2017-11-07T18:53:47.978Z,39.23
2017-11-07T18:56:15.927Z,38.67
2017-11-07T18:58:43.642Z,37.37
2017-11-07T19:01:11.982Z,40.40
2017-11-07T19:03:39.581Z,43.83
2017-11-07T19:06:07.895Z,45.43
2017-11-07T19:08:35.775Z,42.20
2017-11-07T19:11:03.342Z,39.83
2017-11-07T19:13:30.917Z,41.80
2017-11-07T19:15:58.557Z,40.17
2017-11-07T19:18:26.109Z,40.50
2017-11-07T19:20:53.899Z,45.43
2017-11-07T19:23:21.632Z,45.20
2017-11-07T19:25:49.498Z,46.37
2017-11-07T19:28:17.058Z,48.57
2017-11-07T19:30:44.599Z,42.77
2017-11-07T19:33:12.261Z,42.57
2017-11-07T19:35:39.943Z,46.67
2017-11-07T19:38:07.545Z,51.33
2017-11-07T19:40:35.095Z,42.23
2017-11-07T19:43:03.433Z,45.70
2017-11-07T19:45:30.994Z,46.50
2017-11-07T19:47:58.550Z,46.83
2017-11-07T19:50:26.131Z,51.70
2017-11-07T19:52:53.689Z,54.93
2017-11-07T19:55:21.296Z,48.93
2017-11-07T19:57:49.620Z,43.50
2017-11-07T20:00:17.598Z,49.43
2017-11-07T20:02:45.164Z,48.17
2017-11-07T20:05:12.706Z,47.67
2017-11-07T20:07:40.295Z,58.30
2017-11-07T20:10:07.871Z,49.27
2017-11-07T20:12:36.249Z,52.73
2017-11-07T20:15:03.789Z,47.60
2017-11-07T20:17:31.845Z,57.80
2017-11-07T20:19:59.514Z,59.13
2017-11-07T20:22:27.058Z,62.77
2017-11-07T20:24:54.651Z,50.43
2017-11-07T20:27:22.224Z,57.03
2017-11-07T20:29:49.814Z,53.80
2017-11-07T20:32:17.356Z,70.50
2017-11-07T20:34:45.355Z,78.73
2017-11-07T20:37:12.913Z,69.83
2017-11-07T20:39:40.601Z,69.37
2017-11-07T20:42:08.222Z,71.70
2017-11-07T20:44:35.786Z,69.47
2017-11-07T20:47:03.678Z,75.03
2017-11-07T20:49:31.235Z,73.33
2017-11-07T20:51:58.796Z,69.13
2017-11-07T20:54:26.378Z,61.33
2017-11-07T20:56:54.003Z,69.57
2017-11-07T20:59:21.630Z,73.33
2017-11-07T21:01:49.179Z,80.97
2017-11-07T21:04:17.786Z,73.70
2017-11-07T21:06:45.336Z,63.37
2017-11-07T21:09:13.672Z,71.17
2017-11-07T21:11:41.267Z,75.80
2017-11-07T21:14:09.594Z,76.57
2017-11-07T21:16:37.182Z,72.43
2017-11-07T21:19:04.816Z,63.90
2017-11-07T21:21:32.666Z,73.10
2017-11-07T21:24:00.218Z,73.47
2017-11-07T21:26:27.773Z,65.50
2017-11-07T21:28:55.379Z,67.60
2017-11-07T21:31:22.928Z,70.40
2017-11-07T21:33:50.538Z,77.20
2017-11-07T21:36:18.102Z,76.20
2017-11-07T21:38:46.815Z,86.70
2017-11-07T21:41:14.349Z,63.53
2017-11-07T21:43:41.909Z,71.80
2017-11-07T21:46:09.506Z,76.13
2017-11-07T21:48:37.094Z,73.53
2017-11-07T21:51:04.739Z,65.57
2017-11-07T21:53:32.409Z,71.47
2017-11-07T21:56:00.373Z,75.27
2017-11-07T21:58:27.937Z,68.03
2017-11-07T22:00:55.554Z,91.00
2017-11-07T22:03:23.149Z,78.73
2017-11-07T22:05:50.706Z,77.77
2017-11-07T22:08:18.302Z,78.57
2017-11-07T22:10:46.662Z,78.60
2017-11-07T22:13:14.827Z,72.77
2017-11-07T22:15:42.398Z,71.57
2017-11-07T22:18:11.545Z,74.73
2017-11-07T22:20:39.947Z,84.53
2017-11-07T22:23:13.052Z,76.90
2017-11-07T22:25:40.715Z,71.87
2017-11-07T22:28:08.271Z,84.03
2017-11-07T22:30:36.389Z,74.27
2017-11-07T22:33:03.988Z,76.90
2017-11-07T22:35:31.548Z,87.77
2017-11-07T22:37:59.126Z,85.90
2017-11-07T22:40:26.677Z,64.37
2017-11-07T22:42:54.820Z,76.33
2017-11-07T22:45:22.381Z,66.30
2017-11-07T22:47:50.520Z,64.67
2017-11-07T22:50:19.142Z,72.67
2017-11-07T22:52:46.701Z,67.97
2017-11-07T22:55:14.285Z,66.20
2017-11-07T22:57:41.841Z,79.13
2017-11-07T23:00:09.436Z,78.67
2017-11-07T23:02:37.747Z,69.73
2017-11-07T23:05:07.385Z,77.03
2017-11-07T23:07:34.957Z,69.40
2017-11-07T23:10:02.529Z,83.23
2017-11-07T23:12:30.103Z,89.67
2017-11-07T23:14:57.683Z,91.37
2017-11-07T23:17:25.288Z,101.90
2017-11-07T23:19:52.858Z,108.27
2017-11-07T23:22:20.705Z,106.37
2017-11-07T23:24:48.260Z,99.17
2017-11-07T23:27:15.831Z,100.13
2017-11-07T23:29:43.600Z,102.80
2017-11-07T23:32:11.151Z,90.40
2017-11-07T23:34:38.746Z,86.97
2017-11-07T23:37:07.322Z,88.57
2017-11-07T23:39:35.262Z,91.07
2017-11-07T23:42:02.812Z,113.13
2017-11-07T23:44:30.410Z,101.30
2017-11-07T23:46:58.010Z,112.07
2017-11-07T23:49:25.574Z,89.07
2017-11-07T23:51:53.170Z,80.90
2017-11-07T23:54:20.726Z,81.83
2017-11-07T23:56:48.646Z,97.50
2017-11-07T23:59:20.161Z,94.53
